sensor_id;sensor_type;location;lat;lon;timestamp;P1;durP1;ratioP1;P2;durP2;ratioP2
7753;SDS011;3921;42.266;23.122;2023-07-31T00:47:32;7.10;;;4.73;;
7753;SDS011;3921;42.266;23.122;2023-07-31T01:18:33;6.80;;;4.97;;
7753;SDS011;3921;42.266;23.122;2023-07-31T01:21:06;5.67;;;4.73;;
7753;SDS011;3921;42.266;23.122;2023-07-31T01:24:28;6.33;;;4.60;;
7753;SDS011;3921;42.266;23.122;2023-07-31T01:43:49;5.33;;;4.63;;
7753;SDS011;3921;42.266;23.122;2023-07-31T01:59:33;6.10;;;5.03;;
7753;SDS011;3921;42.266;23.122;2023-07-31T02:10:24;5.50;;;4.67;;
7753;SDS011;3921;42.266;23.122;2023-07-31T04:56:37;13.70;;;12.43;;
7753;SDS011;3921;42.266;23.122;2023-07-31T04:59:12;16.43;;;12.10;;
7753;SDS011;3921;42.266;23.122;2023-07-31T05:09:26;15.40;;;13.87;;
7753;SDS011;3921;42.266;23.122;2023-07-31T05:12:00;14.17;;;12.70;;
7753;SDS011;3921;42.266;23.122;2023-07-31T05:20:08;16.25;;;14.25;;
7753;SDS011;3921;42.266;23.122;2023-07-31T05:22:36;14.60;;;12.93;;
7753;SDS011;3921;42.266;23.122;2023-07-31T05:25:07;14.50;;;12.87;;
7753;SDS011;3921;42.266;23.122;2023-07-31T05:27:39;14.07;;;12.30;;
7753;SDS011;3921;42.266;23.122;2023-07-31T05:30:07;15.80;;;12.00;;
7753;SDS011;3921;42.266;23.122;2023-07-31T05:32:56;16.03;;;13.53;;
7753;SDS011;3921;42.266;23.122;2023-07-31T05:35:23;18.20;;;16.60;;
7753;SDS011;3921;42.266;23.122;2023-07-31T05:37:53;17.23;;;15.47;;
7753;SDS011;3921;42.266;23.122;2023-07-31T05:40:21;123.23;;;117.83;;
7753;SDS011;3921;42.266;23.122;2023-07-31T05:45:37;125.97;;;120.37;;
7753;SDS011;3921;42.266;23.122;2023-07-31T05:48:16;123.53;;;118.13;;
7753;SDS011;3921;42.266;23.122;2023-07-31T05:50:45;116.60;;;111.23;;
7753;SDS011;3921;42.266;23.122;2023-07-31T05:53:15;118.43;;;113.23;;
7753;SDS011;3921;42.266;23.122;2023-07-31T05:55:47;114.10;;;108.87;;
7753;SDS011;3921;42.266;23.122;2023-07-31T05:58:17;107.53;;;102.70;;
7753;SDS011;3921;42.266;23.122;2023-07-31T06:00:47;114.43;;;109.10;;
7753;SDS011;3921;42.266;23.122;2023-07-31T06:08:42;119.87;;;114.17;;
7753;SDS011;3921;42.266;23.122;2023-07-31T06:11:15;118.53;;;112.90;;
7753;SDS011;3921;42.266;23.122;2023-07-31T06:19:30;66.67;;;62.57;;
7753;SDS011;3921;42.266;23.122;2023-07-31T06:22:04;51.37;;;47.73;;
7753;SDS011;3921;42.266;23.122;2023-07-31T06:24:34;46.83;;;43.60;;
7753;SDS011;3921;42.266;23.122;2023-07-31T06:27:07;41.10;;;37.97;;
7753;SDS011;3921;42.266;23.122;2023-07-31T06:29:37;40.63;;;37.57;;
7753;SDS011;3921;42.266;23.122;2023-07-31T06:32:07;43.33;;;40.07;;
7753;SDS011;3921;42.266;23.122;2023-07-31T06:34:35;42.80;;;39.43;;
7753;SDS011;3921;42.266;23.122;2023-07-31T06:37:14;36.17;;;33.33;;
7753;SDS011;3921;42.266;23.122;2023-07-31T06:39:43;34.87;;;32.07;;
7753;SDS011;3921;42.266;23.122;2023-07-31T06:42:13;34.47;;;31.57;;
7753;SDS011;3921;42.266;23.122;2023-07-31T06:44:46;35.23;;;32.47;;
7753;SDS011;3921;42.266;23.122;2023-07-31T06:50:08;30.17;;;27.87;;
7753;SDS011;3921;42.266;23.122;2023-07-31T06:52:36;26.63;;;24.30;;
7753;SDS011;3921;42.266;23.122;2023-07-31T06:55:16;24.47;;;22.33;;
7753;SDS011;3921;42.266;23.122;2023-07-31T06:57:56;22.67;;;20.67;;
7753;SDS011;3921;42.266;23.122;2023-07-31T07:00:28;22.47;;;20.47;;
7753;SDS011;3921;42.266;23.122;2023-07-31T07:03:27;23.17;;;20.70;;
7753;SDS011;3921;42.266;23.122;2023-07-31T07:05:57;20.83;;;19.03;;
7753;SDS011;3921;42.266;23.122;2023-07-31T07:08:25;22.37;;;20.17;;
7753;SDS011;3921;42.266;23.122;2023-07-31T07:10:59;21.03;;;19.20;;
7753;SDS011;3921;42.266;23.122;2023-07-31T07:13:32;19.90;;;18.20;;
7753;SDS011;3921;42.266;23.122;2023-07-31T07:16:08;19.33;;;17.63;;
7753;SDS011;3921;42.266;23.122;2023-07-31T07:21:36;19.97;;;18.23;;
7753;SDS011;3921;42.266;23.122;2023-07-31T07:24:14;17.80;;;16.20;;
7753;SDS011;3921;42.266;23.122;2023-07-31T07:27:07;19.67;;;17.87;;
7753;SDS011;3921;42.266;23.122;2023-07-31T07:29:45;16.83;;;15.23;;
7753;SDS011;3921;42.266;23.122;2023-07-31T07:32:13;17.27;;;15.67;;
7753;SDS011;3921;42.266;23.122;2023-07-31T07:34:42;14.87;;;13.67;;
7753;SDS011;3921;42.266;23.122;2023-07-31T07:37:12;16.20;;;14.90;;
7753;SDS011;3921;42.266;23.122;2023-07-31T07:39:39;15.97;;;14.47;;
7753;SDS011;3921;42.266;23.122;2023-07-31T07:42:06;14.87;;;13.57;;
7753;SDS011;3921;42.266;23.122;2023-07-31T07:44:33;15.63;;;14.23;;
7753;SDS011;3921;42.266;23.122;2023-07-31T07:47:00;15.97;;;14.57;;
7753;SDS011;3921;42.266;23.122;2023-07-31T07:49:32;14.90;;;13.70;;
7753;SDS011;3921;42.266;23.122;2023-07-31T07:52:05;14.20;;;12.73;;
7753;SDS011;3921;42.266;23.122;2023-07-31T07:54:33;13.57;;;12.47;;
7753;SDS011;3921;42.266;23.122;2023-07-31T07:57:00;12.13;;;10.93;;
7753;SDS011;3921;42.266;23.122;2023-07-31T07:59:33;11.60;;;10.53;;
7753;SDS011;3921;42.266;23.122;2023-07-31T08:02:00;10.13;;;9.23;;
7753;SDS011;3921;42.266;23.122;2023-07-31T08:04:30;9.03;;;8.33;;
7753;SDS011;3921;42.266;23.122;2023-07-31T08:07:00;8.77;;;7.97;;
7753;SDS011;3921;42.266;23.122;2023-07-31T08:09:30;9.00;;;8.27;;
7753;SDS011;3921;42.266;23.122;2023-07-31T08:12:05;9.33;;;8.50;;
7753;SDS011;3921;42.266;23.122;2023-07-31T08:14:33;9.70;;;8.83;;
7753;SDS011;3921;42.266;23.122;2023-07-31T08:17:01;10.03;;;8.73;;
7753;SDS011;3921;42.266;23.122;2023-07-31T08:19:29;10.73;;;9.67;;
7753;SDS011;3921;42.266;23.122;2023-07-31T08:22:04;12.03;;;9.87;;
7753;SDS011;3921;42.266;23.122;2023-07-31T08:24:38;11.47;;;10.40;;
7753;SDS011;3921;42.266;23.122;2023-07-31T08:27:08;12.67;;;11.57;;
7753;SDS011;3921;42.266;23.122;2023-07-31T08:29:36;12.50;;;11.33;;
7753;SDS011;3921;42.266;23.122;2023-07-31T08:32:10;11.87;;;10.80;;
7753;SDS011;3921;42.266;23.122;2023-07-31T08:34:42;10.80;;;9.70;;
7753;SDS011;3921;42.266;23.122;2023-07-31T08:37:23;10.73;;;9.57;;
7753;SDS011;3921;42.266;23.122;2023-07-31T08:39:54;10.13;;;9.23;;
7753;SDS011;3921;42.266;23.122;2023-07-31T08:42:28;9.47;;;8.67;;
7753;SDS011;3921;42.266;23.122;2023-07-31T08:45:16;11.10;;;10.00;;
7753;SDS011;3921;42.266;23.122;2023-07-31T08:47:46;11.03;;;10.03;;
7753;SDS011;3921;42.266;23.122;2023-07-31T08:50:32;8.97;;;8.10;;
7753;SDS011;3921;42.266;23.122;2023-07-31T08:53:16;9.20;;;8.47;;
7753;SDS011;3921;42.266;23.122;2023-07-31T08:55:58;7.33;;;6.73;;
7753;SDS011;3921;42.266;23.122;2023-07-31T08:58:31;6.70;;;6.20;;
7753;SDS011;3921;42.266;23.122;2023-07-31T09:01:03;5.73;;;5.33;;
7753;SDS011;3921;42.266;23.122;2023-07-31T09:03:49;6.40;;;5.07;;
7753;SDS011;3921;42.266;23.122;2023-07-31T09:06:27;5.53;;;5.13;;
7753;SDS011;3921;42.266;23.122;2023-07-31T09:09:16;6.13;;;5.10;;
7753;SDS011;3921;42.266;23.122;2023-07-31T09:14:58;5.43;;;4.93;;
7753;SDS011;3921;42.266;23.122;2023-07-31T09:17:39;5.87;;;5.30;;
7753;SDS011;3921;42.266;23.122;2023-07-31T09:20:13;5.33;;;4.87;;
7753;SDS011;3921;42.266;23.122;2023-07-31T09:22:50;4.90;;;4.50;;
7753;SDS011;3921;42.266;23.122;2023-07-31T09:25:24;6.10;;;5.53;;
7753;SDS011;3921;42.266;23.122;2023-07-31T09:28:30;7.33;;;6.63;;
7753;SDS011;3921;42.266;23.122;2023-07-31T09:31:07;8.23;;;6.30;;
7753;SDS011;3921;42.266;23.122;2023-07-31T09:33:54;5.90;;;5.43;;
7753;SDS011;3921;42.266;23.122;2023-07-31T09:36:29;5.00;;;4.50;;
7753;SDS011;3921;42.266;23.122;2023-07-31T09:39:12;4.13;;;3.83;;
7753;SDS011;3921;42.266;23.122;2023-07-31T09:41:59;3.93;;;3.63;;
7753;SDS011;3921;42.266;23.122;2023-07-31T09:44:44;4.20;;;3.90;;
7753;SDS011;3921;42.266;23.122;2023-07-31T09:47:35;4.63;;;4.23;;
7753;SDS011;3921;42.266;23.122;2023-07-31T09:50:26;4.63;;;4.27;;
7753;SDS011;3921;42.266;23.122;2023-07-31T09:53:23;6.93;;;4.23;;
7753;SDS011;3921;42.266;23.122;2023-07-31T09:56:18;4.20;;;3.53;;
7753;SDS011;3921;42.266;23.122;2023-07-31T09:59:08;3.43;;;3.13;;
7753;SDS011;3921;42.266;23.122;2023-07-31T10:02:11;3.37;;;3.07;;
7753;SDS011;3921;42.266;23.122;2023-07-31T10:05:01;3.87;;;3.40;;
7753;SDS011;3921;42.266;23.122;2023-07-31T10:07:41;2.70;;;2.50;;
7753;SDS011;3921;42.266;23.122;2023-07-31T10:10:12;2.80;;;2.60;;
7753;SDS011;3921;42.266;23.122;2023-07-31T10:13:24;2.87;;;2.40;;
7753;SDS011;3921;42.266;23.122;2023-07-31T10:16:17;2.70;;;2.17;;
7753;SDS011;3921;42.266;23.122;2023-07-31T10:18:50;2.70;;;2.50;;
7753;SDS011;3921;42.266;23.122;2023-07-31T10:21:20;2.50;;;2.30;;
7753;SDS011;3921;42.266;23.122;2023-07-31T10:23:50;3.13;;;2.30;;
7753;SDS011;3921;42.266;23.122;2023-07-31T10:26:22;2.00;;;1.90;;
7753;SDS011;3921;42.266;23.122;2023-07-31T10:28:52;2.60;;;2.37;;
7753;SDS011;3921;42.266;23.122;2023-07-31T10:31:31;2.70;;;2.50;;
7753;SDS011;3921;42.266;23.122;2023-07-31T11:08:11;2.50;;;2.20;;
7753;SDS011;3921;42.266;23.122;2023-07-31T11:16:20;2.67;;;2.20;;
7753;SDS011;3921;42.266;23.122;2023-07-31T11:18:52;3.93;;;2.43;;
7753;SDS011;3921;42.266;23.122;2023-07-31T11:21:33;3.77;;;2.97;;
7753;SDS011;3921;42.266;23.122;2023-07-31T11:43:07;2.53;;;2.20;;
7753;SDS011;3921;42.266;23.122;2023-07-31T11:45:51;3.30;;;2.50;;
7753;SDS011;3921;42.266;23.122;2023-07-31T11:48:31;2.30;;;2.20;;
7753;SDS011;3921;42.266;23.122;2023-07-31T11:51:14;2.20;;;2.00;;
7753;SDS011;3921;42.266;23.122;2023-07-31T11:53:50;2.60;;;2.40;;
7753;SDS011;3921;42.266;23.122;2023-07-31T11:56:32;2.17;;;2.07;;
7753;SDS011;3921;42.266;23.122;2023-07-31T11:59:17;2.30;;;2.10;;
7753;SDS011;3921;42.266;23.122;2023-07-31T12:10:06;2.60;;;2.10;;
7753;SDS011;3921;42.266;23.122;2023-07-31T12:12:43;2.20;;;2.00;;
7753;SDS011;3921;42.266;23.122;2023-07-31T12:18:30;2.17;;;2.03;;
7753;SDS011;3921;42.266;23.122;2023-07-31T12:21:13;2.10;;;2.00;;
7753;SDS011;3921;42.266;23.122;2023-07-31T12:23:51;2.63;;;2.43;;
7753;SDS011;3921;42.266;23.122;2023-07-31T12:26:34;3.23;;;2.07;;
7753;SDS011;3921;42.266;23.122;2023-07-31T12:29:50;3.27;;;2.10;;
7753;SDS011;3921;42.266;23.122;2023-07-31T12:32:39;2.27;;;1.90;;
7753;SDS011;3921;42.266;23.122;2023-07-31T12:35:19;2.37;;;2.17;;
7753;SDS011;3921;42.266;23.122;2023-07-31T12:37:52;2.20;;;2.10;;
7753;SDS011;3921;42.266;23.122;2023-07-31T12:40:21;2.60;;;2.27;;
7753;SDS011;3921;42.266;23.122;2023-07-31T12:43:00;3.07;;;2.50;;
7753;SDS011;3921;42.266;23.122;2023-07-31T12:45:45;3.30;;;3.10;;
7753;SDS011;3921;42.266;23.122;2023-07-31T12:48:27;3.47;;;3.17;;
7753;SDS011;3921;42.266;23.122;2023-07-31T12:51:07;3.57;;;3.27;;
7753;SDS011;3921;42.266;23.122;2023-07-31T12:53:51;3.10;;;2.90;;
7753;SDS011;3921;42.266;23.122;2023-07-31T12:56:46;2.83;;;2.63;;
7753;SDS011;3921;42.266;23.122;2023-07-31T12:59:16;3.73;;;3.10;;
7753;SDS011;3921;42.266;23.122;2023-07-31T13:01:53;3.60;;;3.30;;
7753;SDS011;3921;42.266;23.122;2023-07-31T13:04:25;4.10;;;3.80;;
7753;SDS011;3921;42.266;23.122;2023-07-31T13:07:10;3.97;;;3.57;;
7753;SDS011;3921;42.266;23.122;2023-07-31T13:09:55;3.87;;;3.47;;
7753;SDS011;3921;42.266;23.122;2023-07-31T13:12:59;3.90;;;3.60;;
7753;SDS011;3921;42.266;23.122;2023-07-31T13:15:37;3.87;;;3.50;;
7753;SDS011;3921;42.266;23.122;2023-07-31T13:18:19;4.53;;;4.13;;
7753;SDS011;3921;42.266;23.122;2023-07-31T13:21:03;4.60;;;4.13;;
7753;SDS011;3921;42.266;23.122;2023-07-31T13:23:46;4.33;;;3.93;;
7753;SDS011;3921;42.266;23.122;2023-07-31T13:26:17;4.47;;;4.07;;
7753;SDS011;3921;42.266;23.122;2023-07-31T13:29:07;4.70;;;4.30;;
7753;SDS011;3921;42.266;23.122;2023-07-31T13:31:38;4.67;;;4.27;;
7753;SDS011;3921;42.266;23.122;2023-07-31T13:34:19;4.23;;;3.93;;
7753;SDS011;3921;42.266;23.122;2023-07-31T13:36:50;5.07;;;4.63;;
7753;SDS011;3921;42.266;23.122;2023-07-31T13:39:24;4.90;;;4.50;;
7753;SDS011;3921;42.266;23.122;2023-07-31T13:41:54;4.90;;;4.50;;
7753;SDS011;3921;42.266;23.122;2023-07-31T13:44:25;5.50;;;5.00;;
7753;SDS011;3921;42.266;23.122;2023-07-31T13:47:16;6.90;;;5.87;;
7753;SDS011;3921;42.266;23.122;2023-07-31T13:50:04;6.23;;;5.67;;
7753;SDS011;3921;42.266;23.122;2023-07-31T13:52:38;5.73;;;5.33;;
7753;SDS011;3921;42.266;23.122;2023-07-31T13:55:22;6.10;;;5.60;;
7753;SDS011;3921;42.266;23.122;2023-07-31T13:57:51;6.83;;;6.23;;
7753;SDS011;3921;42.266;23.122;2023-07-31T14:00:32;7.20;;;6.50;;
7753;SDS011;3921;42.266;23.122;2023-07-31T14:03:00;8.27;;;6.93;;
7753;SDS011;3921;42.266;23.122;2023-07-31T14:05:29;7.50;;;6.80;;
7753;SDS011;3921;42.266;23.122;2023-07-31T14:08:11;7.87;;;7.20;;
7753;SDS011;3921;42.266;23.122;2023-07-31T14:19:41;7.87;;;7.07;;
7753;SDS011;3921;42.266;23.122;2023-07-31T14:24:48;8.50;;;7.80;;
7753;SDS011;3921;42.266;23.122;2023-07-31T14:33:33;8.67;;;7.80;;
7753;SDS011;3921;42.266;23.122;2023-07-31T14:36:33;9.20;;;7.60;;
7753;SDS011;3921;42.266;23.122;2023-07-31T14:39:11;8.13;;;7.43;;
7753;SDS011;3921;42.266;23.122;2023-07-31T14:41:41;8.20;;;7.40;;
7753;SDS011;3921;42.266;23.122;2023-07-31T14:44:08;8.07;;;7.40;;
7753;SDS011;3921;42.266;23.122;2023-07-31T14:46:35;8.17;;;7.37;;
7753;SDS011;3921;42.266;23.122;2023-07-31T14:49:05;8.37;;;7.67;;
7753;SDS011;3921;42.266;23.122;2023-07-31T14:51:34;8.13;;;7.43;;
7753;SDS011;3921;42.266;23.122;2023-07-31T14:54:11;8.40;;;7.57;;
7753;SDS011;3921;42.266;23.122;2023-07-31T14:56:48;8.40;;;7.70;;
7753;SDS011;3921;42.266;23.122;2023-07-31T14:59:23;8.53;;;7.80;;
7753;SDS011;3921;42.266;23.122;2023-07-31T15:01:55;7.57;;;6.57;;
7753;SDS011;3921;42.266;23.122;2023-07-31T15:04:24;7.60;;;7.00;;
7753;SDS011;3921;42.266;23.122;2023-07-31T15:06:57;7.23;;;6.60;;
7753;SDS011;3921;42.266;23.122;2023-07-31T15:15:30;7.13;;;6.53;;
7753;SDS011;3921;42.266;23.122;2023-07-31T15:18:10;6.87;;;6.23;;
7753;SDS011;3921;42.266;23.122;2023-07-31T15:20:38;6.50;;;5.83;;
7753;SDS011;3921;42.266;23.122;2023-07-31T15:24:47;6.30;;;5.80;;
7753;SDS011;3921;42.266;23.122;2023-07-31T15:28:40;6.70;;;6.20;;
7753;SDS011;3921;42.266;23.122;2023-07-31T15:31:17;6.93;;;6.33;;
7753;SDS011;3921;42.266;23.122;2023-07-31T15:33:47;6.47;;;5.87;;
7753;SDS011;3921;42.266;23.122;2023-07-31T15:36:33;6.63;;;6.03;;
7753;SDS011;3921;42.266;23.122;2023-07-31T15:39:01;5.77;;;5.27;;
7753;SDS011;3921;42.266;23.122;2023-07-31T15:41:32;5.73;;;5.33;;
7753;SDS011;3921;42.266;23.122;2023-07-31T15:44:02;6.13;;;5.53;;
7753;SDS011;3921;42.266;23.122;2023-07-31T15:46:46;5.77;;;5.27;;
7753;SDS011;3921;42.266;23.122;2023-07-31T15:49:13;5.73;;;5.20;;
7753;SDS011;3921;42.266;23.122;2023-07-31T15:51:44;5.80;;;5.40;;
7753;SDS011;3921;42.266;23.122;2023-07-31T15:54:15;5.90;;;5.30;;
7753;SDS011;3921;42.266;23.122;2023-07-31T15:56:42;5.27;;;4.87;;
7753;SDS011;3921;42.266;23.122;2023-07-31T15:59:09;6.10;;;5.60;;
7753;SDS011;3921;42.266;23.122;2023-07-31T16:01:39;6.60;;;5.90;;
7753;SDS011;3921;42.266;23.122;2023-07-31T16:04:06;5.60;;;5.20;;
7753;SDS011;3921;42.266;23.122;2023-07-31T16:06:36;5.00;;;4.60;;
7753;SDS011;3921;42.266;23.122;2023-07-31T16:09:03;5.53;;;4.53;;
7753;SDS011;3921;42.266;23.122;2023-07-31T16:11:31;4.70;;;4.30;;
7753;SDS011;3921;42.266;23.122;2023-07-31T16:14:01;5.13;;;4.73;;
7753;SDS011;3921;42.266;23.122;2023-07-31T16:16:29;4.17;;;3.87;;
7753;SDS011;3921;42.266;23.122;2023-07-31T16:19:00;4.60;;;4.27;;
7753;SDS011;3921;42.266;23.122;2023-07-31T16:21:27;4.30;;;4.00;;
7753;SDS011;3921;42.266;23.122;2023-07-31T16:23:55;4.43;;;4.03;;
7753;SDS011;3921;42.266;23.122;2023-07-31T16:26:24;3.93;;;3.63;;
7753;SDS011;3921;42.266;23.122;2023-07-31T16:28:51;4.53;;;4.13;;
7753;SDS011;3921;42.266;23.122;2023-07-31T16:31:18;4.20;;;3.90;;
7753;SDS011;3921;42.266;23.122;2023-07-31T16:34:08;6.83;;;3.80;;
7753;SDS011;3921;42.266;23.122;2023-07-31T16:36:42;3.70;;;3.40;;
7753;SDS011;3921;42.266;23.122;2023-07-31T16:39:11;3.77;;;3.47;;
7753;SDS011;3921;42.266;23.122;2023-07-31T16:41:38;4.83;;;3.80;;
7753;SDS011;3921;42.266;23.122;2023-07-31T16:44:05;4.07;;;3.67;;
7753;SDS011;3921;42.266;23.122;2023-07-31T16:46:34;4.10;;;3.67;;
7753;SDS011;3921;42.266;23.122;2023-07-31T16:49:01;3.83;;;3.53;;
7753;SDS011;3921;42.266;23.122;2023-07-31T16:51:30;3.60;;;3.30;;
7753;SDS011;3921;42.266;23.122;2023-07-31T16:53:57;3.37;;;3.17;;
7753;SDS011;3921;42.266;23.122;2023-07-31T16:56:25;3.27;;;2.83;;
7753;SDS011;3921;42.266;23.122;2023-07-31T16:58:52;3.40;;;3.10;;
7753;SDS011;3921;42.266;23.122;2023-07-31T17:01:21;4.10;;;3.43;;
7753;SDS011;3921;42.266;23.122;2023-07-31T17:03:52;4.27;;;3.33;;
7753;SDS011;3921;42.266;23.122;2023-07-31T17:06:19;3.40;;;3.10;;
7753;SDS011;3921;42.266;23.122;2023-07-31T17:08:48;3.10;;;2.80;;
7753;SDS011;3921;42.266;23.122;2023-07-31T17:11:15;3.13;;;2.70;;
7753;SDS011;3921;42.266;23.122;2023-07-31T17:13:42;3.80;;;3.47;;
7753;SDS011;3921;42.266;23.122;2023-07-31T17:16:09;4.40;;;3.20;;
7753;SDS011;3921;42.266;23.122;2023-07-31T17:18:36;3.20;;;2.90;;
7753;SDS011;3921;42.266;23.122;2023-07-31T17:21:03;3.03;;;2.80;;
7753;SDS011;3921;42.266;23.122;2023-07-31T17:23:33;3.97;;;3.40;;
7753;SDS011;3921;42.266;23.122;2023-07-31T17:26:01;2.93;;;2.63;;
7753;SDS011;3921;42.266;23.122;2023-07-31T17:28:29;2.83;;;2.63;;
7753;SDS011;3921;42.266;23.122;2023-07-31T17:31:00;2.63;;;2.43;;
7753;SDS011;3921;42.266;23.122;2023-07-31T17:33:29;3.40;;;2.77;;
7753;SDS011;3921;42.266;23.122;2023-07-31T17:35:56;3.27;;;2.50;;
7753;SDS011;3921;42.266;23.122;2023-07-31T17:38:26;3.00;;;2.77;;
7753;SDS011;3921;42.266;23.122;2023-07-31T17:40:53;3.23;;;2.50;;
7753;SDS011;3921;42.266;23.122;2023-07-31T17:43:24;4.00;;;2.50;;
7753;SDS011;3921;42.266;23.122;2023-07-31T17:45:51;2.60;;;2.40;;
7753;SDS011;3921;42.266;23.122;2023-07-31T17:48:18;2.20;;;2.10;;
7753;SDS011;3921;42.266;23.122;2023-07-31T17:50:48;2.87;;;2.60;;
7753;SDS011;3921;42.266;23.122;2023-07-31T17:53:17;2.60;;;2.40;;
7753;SDS011;3921;42.266;23.122;2023-07-31T17:55:44;3.47;;;2.43;;
7753;SDS011;3921;42.266;23.122;2023-07-31T17:58:11;2.53;;;2.33;;
7753;SDS011;3921;42.266;23.122;2023-07-31T18:00:43;4.00;;;2.03;;
7753;SDS011;3921;42.266;23.122;2023-07-31T18:03:10;2.40;;;2.20;;
7753;SDS011;3921;42.266;23.122;2023-07-31T18:05:37;3.47;;;2.47;;
7753;SDS011;3921;42.266;23.122;2023-07-31T18:08:05;5.10;;;2.30;;
7753;SDS011;3921;42.266;23.122;2023-07-31T18:10:43;2.93;;;2.27;;
7753;SDS011;3921;42.266;23.122;2023-07-31T18:18:37;3.30;;;2.53;;
7753;SDS011;3921;42.266;23.122;2023-07-31T18:21:08;2.43;;;2.23;;
7753;SDS011;3921;42.266;23.122;2023-07-31T18:24:02;2.50;;;1.90;;
7753;SDS011;3921;42.266;23.122;2023-07-31T18:27:08;2.10;;;2.00;;
7753;SDS011;3921;42.266;23.122;2023-07-31T18:46:22;4.87;;;2.10;;
7753;SDS011;3921;42.266;23.122;2023-07-31T18:51:50;4.77;;;2.30;;
7753;SDS011;3921;42.266;23.122;2023-07-31T18:54:26;3.07;;;2.40;;
7753;SDS011;3921;42.266;23.122;2023-07-31T18:57:14;2.43;;;2.17;;
7753;SDS011;3921;42.266;23.122;2023-07-31T19:00:04;2.73;;;2.10;;
7753;SDS011;3921;42.266;23.122;2023-07-31T19:02:48;3.93;;;2.70;;
7753;SDS011;3921;42.266;23.122;2023-07-31T19:28:52;2.40;;;2.17;;
7753;SDS011;3921;42.266;23.122;2023-07-31T19:31:24;2.60;;;2.13;;
7753;SDS011;3921;42.266;23.122;2023-07-31T19:33:54;2.63;;;2.33;;
7753;SDS011;3921;42.266;23.122;2023-07-31T19:36:31;2.57;;;2.10;;
7753;SDS011;3921;42.266;23.122;2023-07-31T19:39:03;2.60;;;2.23;;
7753;SDS011;3921;42.266;23.122;2023-07-31T19:50:22;3.57;;;2.60;;
7753;SDS011;3921;42.266;23.122;2023-07-31T19:53:01;2.60;;;2.40;;
7753;SDS011;3921;42.266;23.122;2023-07-31T19:55:47;2.90;;;2.23;;
7753;SDS011;3921;42.266;23.122;2023-07-31T19:58:14;3.33;;;2.40;;
7753;SDS011;3921;42.266;23.122;2023-07-31T20:03:28;2.20;;;2.00;;
7753;SDS011;3921;42.266;23.122;2023-07-31T20:05:56;3.83;;;2.00;;
7753;SDS011;3921;42.266;23.122;2023-07-31T20:08:27;2.50;;;2.30;;
7753;SDS011;3921;42.266;23.122;2023-07-31T20:11:02;2.35;;;2.15;;
7753;SDS011;3921;42.266;23.122;2023-07-31T20:13:34;3.73;;;2.43;;
7753;SDS011;3921;42.266;23.122;2023-07-31T20:16:06;2.40;;;2.20;;
7753;SDS011;3921;42.266;23.122;2023-07-31T20:18:35;2.83;;;2.30;;
7753;SDS011;3921;42.266;23.122;2023-07-31T20:21:08;2.80;;;2.43;;
7753;SDS011;3921;42.266;23.122;2023-07-31T20:23:38;3.67;;;2.50;;
7753;SDS011;3921;42.266;23.122;2023-07-31T20:26:11;3.10;;;2.80;;
7753;SDS011;3921;42.266;23.122;2023-07-31T20:28:58;4.37;;;2.60;;
7753;SDS011;3921;42.266;23.122;2023-07-31T20:31:49;5.10;;;2.50;;
7753;SDS011;3921;42.266;23.122;2023-07-31T21:53:14;3.30;;;2.47;;
7753;SDS011;3921;42.266;23.122;2023-07-31T21:55:42;2.63;;;2.40;;
7753;SDS011;3921;42.266;23.122;2023-07-31T22:14:28;4.47;;;2.83;;
7753;SDS011;3921;42.266;23.122;2023-07-31T22:19:55;3.57;;;3.20;;
7753;SDS011;3921;42.266;23.122;2023-07-31T22:22:41;4.70;;;2.70;;
7753;SDS011;3921;42.266;23.122;2023-07-31T22:27:52;2.80;;;2.60;;
7753;SDS011;3921;42.266;23.122;2023-07-31T22:33:31;3.10;;;2.40;;
7753;SDS011;3921;42.266;23.122;2023-07-31T22:36:03;2.50;;;2.30;;
7753;SDS011;3921;42.266;23.122;2023-07-31T22:38:49;3.47;;;2.37;;
7753;SDS011;3921;42.266;23.122;2023-07-31T23:59:13;3.93;;;3.20;;
